Annabella — PF3063 — position and weather

sailwx.info

Track history (hours):
 
Tides and Currents Weather Stations Pressure Air Temp Water Temp Dewpoint Dewpoint Depression Visibility Wind Speed Wind Dir Waves Ship Positions

Annabella

Last reported at 2014-Aug-19 03:31 UTC. Time now 2014-Aug-20 14:39 UTC.
Position N 38°45' E 001°26'.

Length 20 m; draft 2.6 m.

Type: Sailing vessel. MMSI: 244030764.

Date/timePositionNaut miles runAvg speedWind from/ knotsBaromVisibWave heightAir tempDewpointWater temp
2014-Aug-19 03:31N 38°45' E 001°26'0 0.0
2014-Aug-18 23:30N 38°45' E 001°26'0 0.1
2014-Aug-18 19:33N 38°45' E 001°25'7 6.8
2014-Aug-18 18:33N 38°51' E 001°29'8 8.2
2014-Aug-18 17:33N 38°56' E 001°37'8 7.8
2014-Aug-18 16:33N 39°01' E 001°45'7 7.4
2014-Aug-18 15:33N 39°06' E 001°53'8 7.8
2014-Aug-18 14:33N 39°10' E 002°01'8 7.5
2014-Aug-18 13:33N 39°14' E 002°10'8 8.1
2014-Aug-18 12:33N 39°19' E 002°18'9 8.7
2014-Aug-18 11:33N 39°24' E 002°27'7 7.0
2014-Aug-18 10:33N 39°29' E 002°34'6 5.8
2014-Aug-18 09:29N 39°34' E 002°38'0 0.0
2014-Aug-18 08:32N 39°34' E 002°38'0 0.0
2014-Aug-18 07:29N 39°34' E 002°38'0 0.0
2014-Aug-18 06:32N 39°34' E 002°38'0 0.0
2014-Aug-18 05:32N 39°34' E 002°38'0 0.0
2014-Aug-18 04:32N 39°34' E 002°38'0 0.0
2014-Aug-18 03:32N 39°34' E 002°38'0 0.0
2014-Aug-18 02:32N 39°34' E 002°38'0 0.0
2014-Aug-18 01:32N 39°34' E 002°38'0 0.0
2014-Aug-18 00:33N 39°34' E 002°38'0 0.0
2014-Aug-17 18:32N 39°34' E 002°38'0 0.0
2014-Aug-17 17:32N 39°34' E 002°38'0 0.0
2014-Aug-17 16:32N 39°34' E 002°38'0 0.0
2014-Aug-17 15:32N 39°34' E 002°38'0 0.0
2014-Aug-17 14:32N 39°34' E 002°38'0 0.0
2014-Aug-17 13:32N 39°34' E 002°38'0 0.0
2014-Aug-17 12:32N 39°34' E 002°38'0 0.0
2014-Aug-17 11:32N 39°34' E 002°38'0 0.0
2014-Aug-17 10:32N 39°34' E 002°38'0 0.0
2014-Aug-17 09:32N 39°34' E 002°38'0 0.0
2014-Aug-17 08:32N 39°34' E 002°38'0 0.0
2014-Aug-17 07:32N 39°34' E 002°38'0 0.0
2014-Aug-17 06:32N 39°34' E 002°38'0 0.0
2014-Aug-17 05:29N 39°34' E 002°38'0 0.0
2014-Aug-17 04:32N 39°34' E 002°38'0 0.0
2014-Aug-17 03:32N 39°34' E 002°38'0 0.0
2014-Aug-17 02:32N 39°34' E 002°38'0 0.0
2014-Aug-17 01:32N 39°34' E 002°38'0 0.0
2014-Aug-17 00:32N 39°34' E 002°38'0 0.0
2014-Aug-16 23:32N 39°34' E 002°38'0 0.0
2014-Aug-16 22:32N 39°34' E 002°38'0 0.0
2014-Aug-16 21:32N 39°34' E 002°38'0 0.0
2014-Aug-16 20:32N 39°34' E 002°38'0 0.0
2014-Aug-16 19:32N 39°34' E 002°38'0 0.0
2014-Aug-16 18:32N 39°34' E 002°38'4 2.1
2014-Aug-16 16:33N 39°30' E 002°41'8 7.2
2014-Aug-16 15:28N 39°23' E 002°45'16 0.7
2014-Aug-15 14:33N 39°11' E 002°59'7 6.6
2014-Aug-15 13:32N 39°15' E 003°05'10 0.2
2014-Aug-13 14:30N 39°22' E 003°14'4 1.7
2014-Aug-13 12:05N 39°19' E 003°10'3 5.5
2014-Aug-13 11:33N 39°17' E 003°07'5 4.8
2014-Aug-13 10:33N 39°17' E 003°01'3 3.0
2014-Aug-13 09:24N 39°20' E 002°59'0 0.0
2014-Aug-13 08:30N 39°20' E 002°59'0 0.0
2014-Aug-13 00:31N 39°20' E 002°59'0 0.0
2014-Aug-12 22:19N 39°20' E 002°59'0 0.0
2014-Aug-12 21:31N 39°20' E 002°59'0 0.0
2014-Aug-11 21:33N 39°20' E 002°59'0 0.0
2014-Aug-11 20:33N 39°20' E 002°59'0 0.0
2014-Aug-11 19:27N 39°20' E 002°59'0 0.0
2014-Aug-11 18:33N 39°20' E 002°59'0 0.0
2014-Aug-11 17:09N 39°20' E 002°59'7 4.2
2014-Aug-11 15:33N 39°21' E 002°51'8 7.6
2014-Aug-11 14:33N 39°23' E 002°41'8 7.7
2014-Aug-11 13:33N 39°26' E 002°32'7 7.3
2014-Aug-11 12:33N 39°30' E 002°24'3 0.1
2014-Aug-10 00:30N 39°33' E 002°23'1 0.1
2014-Aug-09 16:17N 39°32' E 002°22'  
Track history (hours):
 
Tides and Currents Weather Stations Pressure Air Temp Water Temp Dewpoint Dewpoint Depression Visibility Wind Speed Wind Dir Waves Ship Positions

Annabella

Last reported at 2014-Aug-19 03:31 UTC. Time now 2014-Aug-20 14:39 UTC.
Position N 38°45' E 001°26'.

Length 20 m; draft 2.6 m.

Type: Sailing vessel. MMSI: 244030764.

Date/timePositionNaut miles runAvg speedWind from/ knotsBaromVisibWave heightAir tempDewpointWater temp
2014-Aug-19 03:31N 38°45' E 001°26'0 0.0
2014-Aug-18 23:30N 38°45' E 001°26'0 0.1
2014-Aug-18 19:33N 38°45' E 001°25'7 6.8
2014-Aug-18 18:33N 38°51' E 001°29'8 8.2
2014-Aug-18 17:33N 38°56' E 001°37'8 7.8
2014-Aug-18 16:33N 39°01' E 001°45'7 7.4
2014-Aug-18 15:33N 39°06' E 001°53'8 7.8
2014-Aug-18 14:33N 39°10' E 002°01'8 7.5
2014-Aug-18 13:33N 39°14' E 002°10'8 8.1
2014-Aug-18 12:33N 39°19' E 002°18'9 8.7
2014-Aug-18 11:33N 39°24' E 002°27'7 7.0
2014-Aug-18 10:33N 39°29' E 002°34'6 5.8
2014-Aug-18 09:29N 39°34' E 002°38'0 0.0
2014-Aug-18 08:32N 39°34' E 002°38'0 0.0
2014-Aug-18 07:29N 39°34' E 002°38'0 0.0
2014-Aug-18 06:32N 39°34' E 002°38'0 0.0
2014-Aug-18 05:32N 39°34' E 002°38'0 0.0
2014-Aug-18 04:32N 39°34' E 002°38'0 0.0
2014-Aug-18 03:32N 39°34' E 002°38'0 0.0
2014-Aug-18 02:32N 39°34' E 002°38'0 0.0
2014-Aug-18 01:32N 39°34' E 002°38'0 0.0
2014-Aug-18 00:33N 39°34' E 002°38'0 0.0
2014-Aug-17 18:32N 39°34' E 002°38'0 0.0
2014-Aug-17 17:32N 39°34' E 002°38'0 0.0
2014-Aug-17 16:32N 39°34' E 002°38'0 0.0
2014-Aug-17 15:32N 39°34' E 002°38'0 0.0
2014-Aug-17 14:32N 39°34' E 002°38'0 0.0
2014-Aug-17 13:32N 39°34' E 002°38'0 0.0
2014-Aug-17 12:32N 39°34' E 002°38'0 0.0
2014-Aug-17 11:32N 39°34' E 002°38'0 0.0
2014-Aug-17 10:32N 39°34' E 002°38'0 0.0
2014-Aug-17 09:32N 39°34' E 002°38'0 0.0
2014-Aug-17 08:32N 39°34' E 002°38'0 0.0
2014-Aug-17 07:32N 39°34' E 002°38'0 0.0
2014-Aug-17 06:32N 39°34' E 002°38'0 0.0
2014-Aug-17 05:29N 39°34' E 002°38'0 0.0
2014-Aug-17 04:32N 39°34' E 002°38'0 0.0
2014-Aug-17 03:32N 39°34' E 002°38'0 0.0
2014-Aug-17 02:32N 39°34' E 002°38'0 0.0
2014-Aug-17 01:32N 39°34' E 002°38'0 0.0
2014-Aug-17 00:32N 39°34' E 002°38'0 0.0
2014-Aug-16 23:32N 39°34' E 002°38'0 0.0
2014-Aug-16 22:32N 39°34' E 002°38'0 0.0
2014-Aug-16 21:32N 39°34' E 002°38'0 0.0
2014-Aug-16 20:32N 39°34' E 002°38'0 0.0
2014-Aug-16 19:32N 39°34' E 002°38'0 0.0
2014-Aug-16 18:32N 39°34' E 002°38'4 2.1
2014-Aug-16 16:33N 39°30' E 002°41'8 7.2
2014-Aug-16 15:28N 39°23' E 002°45'16 0.7
2014-Aug-15 14:33N 39°11' E 002°59'7 6.6
2014-Aug-15 13:32N 39°15' E 003°05'10 0.2
2014-Aug-13 14:30N 39°22' E 003°14'4 1.7
2014-Aug-13 12:05N 39°19' E 003°10'3 5.5
2014-Aug-13 11:33N 39°17' E 003°07'5 4.8
2014-Aug-13 10:33N 39°17' E 003°01'3 3.0
2014-Aug-13 09:24N 39°20' E 002°59'0 0.0
2014-Aug-13 08:30N 39°20' E 002°59'0 0.0
2014-Aug-13 00:31N 39°20' E 002°59'0 0.0
2014-Aug-12 22:19N 39°20' E 002°59'0 0.0
2014-Aug-12 21:31N 39°20' E 002°59'0 0.0
2014-Aug-11 21:33N 39°20' E 002°59'0 0.0
2014-Aug-11 20:33N 39°20' E 002°59'0 0.0
2014-Aug-11 19:27N 39°20' E 002°59'0 0.0
2014-Aug-11 18:33N 39°20' E 002°59'0 0.0
2014-Aug-11 17:09N 39°20' E 002°59'7 4.2
2014-Aug-11 15:33N 39°21' E 002°51'8 7.6
2014-Aug-11 14:33N 39°23' E 002°41'8 7.7
2014-Aug-11 13:33N 39°26' E 002°32'7 7.3
2014-Aug-11 12:33N 39°30' E 002°24'3 0.1
2014-Aug-10 00:30N 39°33' E 002°23'1 0.1
2014-Aug-09 16:17N 39°32' E 002°22'  

Dump ship's entire track history